createdAt,value
2022-08-03T00:00:00.000Z,99.6
2022-08-03T00:02:00.000Z,99.8
2022-08-03T00:04:00.000Z,99.1
2022-08-03T00:06:00.000Z,99.1
2022-08-03T00:08:00.000Z,99.2
2022-08-03T00:10:00.000Z,99.7
2022-08-03T00:12:00.000Z,99.7
2022-08-03T00:14:00.000Z,99.9
2022-08-03T00:16:00.000Z,99.9
2022-08-03T00:18:00.000Z,99.9
2022-08-03T00:20:00.000Z,99.9
2022-08-03T00:22:00.000Z,99.9
2022-08-03T00:24:00.000Z,99.9
2022-08-03T00:26:00.000Z,99.9
2022-08-03T00:28:00.000Z,99.9
2022-08-03T00:30:00.000Z,99.9
2022-08-03T00:32:00.000Z,99.9
2022-08-03T00:34:00.000Z,99.9
2022-08-03T00:36:00.000Z,99.9
2022-08-03T00:38:00.000Z,99.9
2022-08-03T00:40:00.000Z,99.9
2022-08-03T00:42:00.000Z,99.9
2022-08-03T00:44:00.000Z,99.9
2022-08-03T00:46:00.000Z,99.9
2022-08-03T00:48:00.000Z,99.9
2022-08-03T00:50:00.000Z,99.9
2022-08-03T00:52:00.000Z,99.9
2022-08-03T00:54:00.000Z,99.9
2022-08-03T00:56:00.000Z,99.9
2022-08-03T00:58:00.000Z,99.9
2022-08-03T01:00:00.000Z,99.9
2022-08-03T01:02:00.000Z,99.9
2022-08-03T01:04:00.000Z,99.9
2022-08-03T01:06:00.000Z,99.9
2022-08-03T01:08:00.000Z,99.9
2022-08-03T01:10:00.000Z,99.9
2022-08-03T01:12:00.000Z,99.9
2022-08-03T01:14:00.000Z,99.9
2022-08-03T01:16:00.000Z,99.9
2022-08-03T01:18:00.000Z,99.9
2022-08-03T01:20:00.000Z,99.9
2022-08-03T01:22:00.000Z,99.9
2022-08-03T01:24:00.000Z,99.9
2022-08-03T01:26:00.000Z,99.9
2022-08-03T01:28:00.000Z,99.9
2022-08-03T01:30:00.000Z,99.9
2022-08-03T01:32:00.000Z,99.9
2022-08-03T01:34:00.000Z,99.9
2022-08-03T01:36:00.000Z,99.9
2022-08-03T01:38:00.000Z,99.9
2022-08-03T01:40:00.000Z,99.9
2022-08-03T01:42:00.000Z,99.9
2022-08-03T01:44:00.000Z,99.9
2022-08-03T01:46:00.000Z,99.9
2022-08-03T01:48:00.000Z,99.9
2022-08-03T01:50:00.000Z,99.9
2022-08-03T01:52:00.000Z,99.9
2022-08-03T01:54:00.000Z,99.9
2022-08-03T01:56:00.000Z,99.9
2022-08-03T01:58:00.000Z,99.9
2022-08-03T02:00:00.000Z,99.9
2022-08-03T02:02:00.000Z,99.9
2022-08-03T02:04:00.000Z,99.9
2022-08-03T02:06:00.000Z,99.9
2022-08-03T02:08:00.000Z,99.9
2022-08-03T02:10:00.000Z,99.9
2022-08-03T02:12:00.000Z,99.9
2022-08-03T02:14:00.000Z,99.9
2022-08-03T02:16:00.000Z,99.9
2022-08-03T02:18:00.000Z,99.9
2022-08-03T02:20:00.000Z,99.9
2022-08-03T02:22:00.000Z,99.9
2022-08-03T02:24:00.000Z,99.9
2022-08-03T02:26:00.000Z,99.9
2022-08-03T02:28:00.000Z,99.9
2022-08-03T02:30:00.000Z,99.9
2022-08-03T02:32:00.000Z,99.9
2022-08-03T02:34:00.000Z,99.9
2022-08-03T02:36:00.000Z,99.9
2022-08-03T02:38:00.000Z,99.9
2022-08-03T02:40:00.000Z,99.9
2022-08-03T02:42:00.000Z,99.9
2022-08-03T02:44:00.000Z,99.9
2022-08-03T02:46:00.000Z,99.9
2022-08-03T02:48:00.000Z,99.9
2022-08-03T02:50:00.000Z,99.9
2022-08-03T02:52:00.000Z,99.9
2022-08-03T02:54:00.000Z,99.9
2022-08-03T02:56:00.000Z,99.9
2022-08-03T02:58:00.000Z,99.9
2022-08-03T03:00:00.000Z,99.9
2022-08-03T03:06:00.000Z,99.9
2022-08-03T03:08:00.000Z,99.9
2022-08-03T03:10:00.000Z,99.9
2022-08-03T03:12:00.000Z,99.9
2022-08-03T03:14:00.000Z,99.9
2022-08-03T03:16:00.000Z,99.9
2022-08-03T03:18:00.000Z,99.9
2022-08-03T03:20:00.000Z,99.9
2022-08-03T03:22:00.000Z,99.9
2022-08-03T03:24:00.000Z,99.9
2022-08-03T03:26:00.000Z,99.9
2022-08-03T03:28:00.000Z,99.9
2022-08-03T03:30:00.000Z,99.9
2022-08-03T03:32:00.000Z,99.9
2022-08-03T03:34:00.000Z,99.9
2022-08-03T03:36:00.000Z,99.9
2022-08-03T03:38:00.000Z,99.9
2022-08-03T03:40:00.000Z,99.9
2022-08-03T03:42:00.000Z,99.9
2022-08-03T03:44:00.000Z,99.9
2022-08-03T03:46:00.000Z,99.9
2022-08-03T03:48:00.000Z,99.9
2022-08-03T03:50:00.000Z,99.9
2022-08-03T03:52:00.000Z,99.9
2022-08-03T03:54:00.000Z,99.9
2022-08-03T03:56:00.000Z,99.9
2022-08-03T03:58:00.000Z,99.9
2022-08-03T04:00:00.000Z,99.9
2022-08-03T04:02:00.000Z,99.9
2022-08-03T04:04:00.000Z,99.9
2022-08-03T04:06:00.000Z,99.9
2022-08-03T04:08:00.000Z,99.9
2022-08-03T04:10:00.000Z,99.9
2022-08-03T04:12:00.000Z,99.9
2022-08-03T04:14:00.000Z,99.9
2022-08-03T04:16:00.000Z,99.9
2022-08-03T04:18:00.000Z,99.9
2022-08-03T04:20:00.000Z,99.9
2022-08-03T04:22:00.000Z,99.9
2022-08-03T04:24:00.000Z,99.9
2022-08-03T04:26:00.000Z,99.9
2022-08-03T04:28:00.000Z,99.9
2022-08-03T04:30:00.000Z,99.9
2022-08-03T04:32:00.000Z,99.9
2022-08-03T04:34:00.000Z,99.9
2022-08-03T04:36:00.000Z,99.9
2022-08-03T04:38:00.000Z,99.9
2022-08-03T04:40:00.000Z,99.9
2022-08-03T04:42:00.000Z,99.9
2022-08-03T04:44:00.000Z,99.9
2022-08-03T04:46:00.000Z,99.9
2022-08-03T04:48:00.000Z,99.9
2022-08-03T04:50:00.000Z,99.9
2022-08-03T04:52:00.000Z,99.9
2022-08-03T04:54:00.000Z,99.9
2022-08-03T04:56:00.000Z,99.9
2022-08-03T04:58:00.000Z,99.9
2022-08-03T05:00:00.000Z,99.9
2022-08-03T05:02:00.000Z,99.9
2022-08-03T05:04:00.000Z,99.9
2022-08-03T05:06:00.000Z,99.9
2022-08-03T05:08:00.000Z,99.9
2022-08-03T05:10:00.000Z,99.9
2022-08-03T05:12:00.000Z,99.9
2022-08-03T05:14:00.000Z,99.9
2022-08-03T05:16:00.000Z,99.9
2022-08-03T05:18:00.000Z,99.9
2022-08-03T05:20:00.000Z,99.9
2022-08-03T05:22:00.000Z,99.9
2022-08-03T05:24:00.000Z,99.9
2022-08-03T05:26:00.000Z,99.8
2022-08-03T05:28:00.000Z,99.5
2022-08-03T05:30:00.000Z,99.0
2022-08-03T05:32:00.000Z,99.2
2022-08-03T05:34:00.000Z,98.7
2022-08-03T05:36:00.000Z,98.3
2022-08-03T05:38:00.000Z,98.4
2022-08-03T05:40:00.000Z,98.0
2022-08-03T05:42:00.000Z,98.5
2022-08-03T05:44:00.000Z,96.7
2022-08-03T05:46:00.000Z,97.5
2022-08-03T05:48:00.000Z,97.4
2022-08-03T05:50:00.000Z,96.9
2022-08-03T05:52:00.000Z,96.8
2022-08-03T05:54:00.000Z,96.7
2022-08-03T05:56:00.000Z,96.7
2022-08-03T05:58:00.000Z,96.0
2022-08-03T06:00:00.000Z,96.2
2022-08-03T06:02:00.000Z,95.2
2022-08-03T06:04:00.000Z,95.6
2022-08-03T06:06:00.000Z,94.9
2022-08-03T06:08:00.000Z,95.1
2022-08-03T06:10:00.000Z,95.5
2022-08-03T06:12:00.000Z,95.1
2022-08-03T06:14:00.000Z,95.2
2022-08-03T06:16:00.000Z,94.9
2022-08-03T06:18:00.000Z,94.5
2022-08-03T06:20:00.000Z,94.6
2022-08-03T06:22:00.000Z,94.3
2022-08-03T06:24:00.000Z,94.2
2022-08-03T06:26:00.000Z,94.1
2022-08-03T06:28:00.000Z,94.3
2022-08-03T06:30:00.000Z,94.1
2022-08-03T06:32:00.000Z,93.8
2022-08-03T06:34:00.000Z,94.0
2022-08-03T06:36:00.000Z,93.8
2022-08-03T06:38:00.000Z,93.6
2022-08-03T06:40:00.000Z,93.6
2022-08-03T06:42:00.000Z,93.4
2022-08-03T06:44:00.000Z,93.3
2022-08-03T06:46:00.000Z,93.1
2022-08-03T06:48:00.000Z,92.8
2022-08-03T06:50:00.000Z,92.9
2022-08-03T06:52:00.000Z,92.5
2022-08-03T06:54:00.000Z,92.2
2022-08-03T06:56:00.000Z,92.1
2022-08-03T06:58:00.000Z,92.0
2022-08-03T07:00:00.000Z,92.0
2022-08-03T07:02:00.000Z,91.9
2022-08-03T07:04:00.000Z,92.1
2022-08-03T07:06:00.000Z,92.0
2022-08-03T07:08:00.000Z,92.1
2022-08-03T07:10:00.000Z,92.1
2022-08-03T07:12:00.000Z,91.9
2022-08-03T07:14:00.000Z,92.1
2022-08-03T07:16:00.000Z,92.1
2022-08-03T07:18:00.000Z,92.1
2022-08-03T07:20:00.000Z,91.6
2022-08-03T07:22:00.000Z,91.5
2022-08-03T07:24:00.000Z,91.3
2022-08-03T07:26:00.000Z,90.9
2022-08-03T07:28:00.000Z,90.9
2022-08-03T07:30:00.000Z,90.9
2022-08-03T07:32:00.000Z,90.4
2022-08-03T07:34:00.000Z,90.4
2022-08-03T07:36:00.000Z,90.2
2022-08-03T07:38:00.000Z,90.1
2022-08-03T07:40:00.000Z,89.7
2022-08-03T07:42:00.000Z,89.6
2022-08-03T07:44:00.000Z,89.3
2022-08-03T07:46:00.000Z,89.9
2022-08-03T07:48:00.000Z,89.0
2022-08-03T07:50:00.000Z,89.4
2022-08-03T07:52:00.000Z,88.5
2022-08-03T07:54:00.000Z,88.5
2022-08-03T07:56:00.000Z,88.6
2022-08-03T07:58:00.000Z,88.0
2022-08-03T08:00:00.000Z,87.0
2022-08-03T08:02:00.000Z,86.0
2022-08-03T08:04:00.000Z,85.0
2022-08-03T08:06:00.000Z,84.6
2022-08-03T08:08:00.000Z,85.3
2022-08-03T08:10:00.000Z,83.6
2022-08-03T08:12:00.000Z,83.7
2022-08-03T08:14:00.000Z,83.4
2022-08-03T08:16:00.000Z,83.0
2022-08-03T08:18:00.000Z,83.8
2022-08-03T08:20:00.000Z,82.7
2022-08-03T08:22:00.000Z,82.8
2022-08-03T08:24:00.000Z,82.6
2022-08-03T08:26:00.000Z,82.1
2022-08-03T08:28:00.000Z,82.2
2022-08-03T08:30:00.000Z,81.9
2022-08-03T08:32:00.000Z,81.7
2022-08-03T08:34:00.000Z,81.7
2022-08-03T08:36:00.000Z,81.0
2022-08-03T08:38:00.000Z,80.0
2022-08-03T08:40:00.000Z,80.3
2022-08-03T08:42:00.000Z,79.4
2022-08-03T08:44:00.000Z,79.4
2022-08-03T08:46:00.000Z,78.6
2022-08-03T08:48:00.000Z,78.6
2022-08-03T08:50:00.000Z,77.7
2022-08-03T08:52:00.000Z,77.5
2022-08-03T08:54:00.000Z,77.5
2022-08-03T08:56:00.000Z,77.7
2022-08-03T08:58:00.000Z,77.0
2022-08-03T09:00:00.000Z,76.2
2022-08-03T09:02:00.000Z,76.0
2022-08-03T09:04:00.000Z,76.4
2022-08-03T09:06:00.000Z,76.4
2022-08-03T09:08:00.000Z,75.2
2022-08-03T09:10:00.000Z,75.0
2022-08-03T09:12:00.000Z,75.2
2022-08-03T09:14:00.000Z,75.0
2022-08-03T09:16:00.000Z,75.1
2022-08-03T09:18:00.000Z,75.1
2022-08-03T09:20:00.000Z,75.0
2022-08-03T09:22:00.000Z,75.1
2022-08-03T09:24:00.000Z,75.2
2022-08-03T09:26:00.000Z,74.6
2022-08-03T09:28:00.000Z,74.8
2022-08-03T09:30:00.000Z,73.1
2022-08-03T09:32:00.000Z,74.4
2022-08-03T09:34:00.000Z,74.4
2022-08-03T09:36:00.000Z,73.9
2022-08-03T09:38:00.000Z,74.1
2022-08-03T09:40:00.000Z,73.6
2022-08-03T09:42:00.000Z,74.0
2022-08-03T09:44:00.000Z,74.4
2022-08-03T09:46:00.000Z,73.0
2022-08-03T09:48:00.000Z,72.7
2022-08-03T09:50:00.000Z,72.6
2022-08-03T09:52:00.000Z,72.6
2022-08-03T09:54:00.000Z,72.6
2022-08-03T09:56:00.000Z,72.6
2022-08-03T09:58:00.000Z,72.7
2022-08-03T10:00:00.000Z,72.0
2022-08-03T10:02:00.000Z,71.4
2022-08-03T10:04:00.000Z,70.3
2022-08-03T10:06:00.000Z,70.7
2022-08-03T10:08:00.000Z,69.5
2022-08-03T10:10:00.000Z,69.4
2022-08-03T10:12:00.000Z,68.7
2022-08-03T10:14:00.000Z,68.8
2022-08-03T10:16:00.000Z,69.7
2022-08-03T10:18:00.000Z,68.8
2022-08-03T10:20:00.000Z,69.3
2022-08-03T10:22:00.000Z,68.9
2022-08-03T10:24:00.000Z,68.8
2022-08-03T10:26:00.000Z,67.5
2022-08-03T10:28:00.000Z,67.7
2022-08-03T10:30:00.000Z,67.2
2022-08-03T10:32:00.000Z,66.3
2022-08-03T10:34:00.000Z,66.8
2022-08-03T10:36:00.000Z,67.8
2022-08-03T10:38:00.000Z,67.6
2022-08-03T10:40:00.000Z,66.5
2022-08-03T10:42:00.000Z,66.5
2022-08-03T10:44:00.000Z,67.5
2022-08-03T10:46:00.000Z,67.5
2022-08-03T10:48:00.000Z,67.3
2022-08-03T10:50:00.000Z,67.6
2022-08-03T10:52:00.000Z,67.8
2022-08-03T10:54:00.000Z,66.5
2022-08-03T10:56:00.000Z,67.8
2022-08-03T10:58:00.000Z,68.0
2022-08-03T11:00:00.000Z,68.5
2022-08-03T11:02:00.000Z,67.2
2022-08-03T11:04:00.000Z,67.4
2022-08-03T11:06:00.000Z,67.9
2022-08-03T11:08:00.000Z,68.1
2022-08-03T11:10:00.000Z,66.8
2022-08-03T11:12:00.000Z,66.9
2022-08-03T11:14:00.000Z,66.2
2022-08-03T11:16:00.000Z,66.7
2022-08-03T11:18:00.000Z,67.8
2022-08-03T11:20:00.000Z,66.5
2022-08-03T11:22:00.000Z,65.9
2022-08-03T11:24:00.000Z,66.3
2022-08-03T11:26:00.000Z,65.7
2022-08-03T11:28:00.000Z,65.7
2022-08-03T11:30:00.000Z,63.3
2022-08-03T11:32:00.000Z,63.6
2022-08-03T11:34:00.000Z,64.3
2022-08-03T11:36:00.000Z,63.8
2022-08-03T11:38:00.000Z,64.3
2022-08-03T11:40:00.000Z,64.0
2022-08-03T11:42:00.000Z,63.2
2022-08-03T11:44:00.000Z,63.5
2022-08-03T11:46:00.000Z,63.0
2022-08-03T11:48:00.000Z,63.4
2022-08-03T11:50:00.000Z,63.5
2022-08-03T11:52:00.000Z,63.6
2022-08-03T11:54:00.000Z,63.7
2022-08-03T11:56:00.000Z,62.5
2022-08-03T11:58:00.000Z,62.6
2022-08-03T12:00:00.000Z,62.1
2022-08-03T12:02:00.000Z,62.6
2022-08-03T12:04:00.000Z,60.7
2022-08-03T12:06:00.000Z,61.6
2022-08-03T12:08:00.000Z,61.1
2022-08-03T12:10:00.000Z,61.4
2022-08-03T12:12:00.000Z,61.4
2022-08-03T12:14:00.000Z,61.7
2022-08-03T12:16:00.000Z,61.7
2022-08-03T12:18:00.000Z,62.2
2022-08-03T12:20:00.000Z,61.0
2022-08-03T12:22:00.000Z,62.2
2022-08-03T12:24:00.000Z,60.6
2022-08-03T12:26:00.000Z,60.9
2022-08-03T12:28:00.000Z,60.2
2022-08-03T12:30:00.000Z,60.6
2022-08-03T12:32:00.000Z,61.5
2022-08-03T12:34:00.000Z,62.0
2022-08-03T12:36:00.000Z,61.7
2022-08-03T12:38:00.000Z,60.3
2022-08-03T12:40:00.000Z,61.5
2022-08-03T12:42:00.000Z,61.3
2022-08-03T12:44:00.000Z,61.1
2022-08-03T12:46:00.000Z,60.4
2022-08-03T12:48:00.000Z,61.1
2022-08-03T12:50:00.000Z,60.3
2022-08-03T12:52:00.000Z,61.0
2022-08-03T12:54:00.000Z,61.2
2022-08-03T12:56:00.000Z,60.6
2022-08-03T12:58:00.000Z,60.1
2022-08-03T13:00:00.000Z,60.4
2022-08-03T13:02:00.000Z,61.4
2022-08-03T13:04:00.000Z,60.6
2022-08-03T13:06:00.000Z,60.1
2022-08-03T13:08:00.000Z,60.1
2022-08-03T13:10:00.000Z,60.2
2022-08-03T13:12:00.000Z,60.7
2022-08-03T13:14:00.000Z,61.0
2022-08-03T13:16:00.000Z,60.5
2022-08-03T13:18:00.000Z,60.3
2022-08-03T13:20:00.000Z,60.3
2022-08-03T13:22:00.000Z,60.2
2022-08-03T13:24:00.000Z,60.3
2022-08-03T13:26:00.000Z,60.3
2022-08-03T13:28:00.000Z,60.3
2022-08-03T13:30:00.000Z,60.3
2022-08-03T13:32:00.000Z,60.4
2022-08-03T13:34:00.000Z,60.4
2022-08-03T13:36:00.000Z,60.5
2022-08-03T13:38:00.000Z,60.5
2022-08-03T13:40:00.000Z,60.5
2022-08-03T13:42:00.000Z,60.4
2022-08-03T13:44:00.000Z,60.4
2022-08-03T13:46:00.000Z,60.5
2022-08-03T13:48:00.000Z,60.5
2022-08-03T13:50:00.000Z,60.5
2022-08-03T13:52:00.000Z,60.5
2022-08-03T13:54:00.000Z,60.6
2022-08-03T13:56:00.000Z,60.2
2022-08-03T13:58:00.000Z,59.8
2022-08-03T14:00:00.000Z,60.3
2022-08-03T14:02:00.000Z,60.3
2022-08-03T14:04:00.000Z,60.4
2022-08-03T14:06:00.000Z,60.4
2022-08-03T14:08:00.000Z,59.2
2022-08-03T14:10:00.000Z,60.4
2022-08-03T14:12:00.000Z,60.2
2022-08-03T14:14:00.000Z,58.7
2022-08-03T14:16:00.000Z,58.5
2022-08-03T14:18:00.000Z,58.7
2022-08-03T14:20:00.000Z,58.0
2022-08-03T14:22:00.000Z,58.7
2022-08-03T14:24:00.000Z,58.9
2022-08-03T14:26:00.000Z,59.1
2022-08-03T14:28:00.000Z,58.9
2022-08-03T14:30:00.000Z,58.9
2022-08-03T14:32:00.000Z,57.9
2022-08-03T14:34:00.000Z,58.7
2022-08-03T14:36:00.000Z,58.8
2022-08-03T14:38:00.000Z,58.4
2022-08-03T14:40:00.000Z,59.4
2022-08-03T14:42:00.000Z,59.5
2022-08-03T14:44:00.000Z,59.1
2022-08-03T14:46:00.000Z,59.1
2022-08-03T14:48:00.000Z,59.1
2022-08-03T14:50:00.000Z,59.7
2022-08-03T14:52:00.000Z,59.5
2022-08-03T14:54:00.000Z,60.1
2022-08-03T14:56:00.000Z,60.2
2022-08-03T14:58:00.000Z,58.7
2022-08-03T15:00:00.000Z,59.8
2022-08-03T15:02:00.000Z,59.1
2022-08-03T15:04:00.000Z,60.3
2022-08-03T15:06:00.000Z,60.4
2022-08-03T15:08:00.000Z,60.4
2022-08-03T15:10:00.000Z,60.4
2022-08-03T15:12:00.000Z,60.3
2022-08-03T15:14:00.000Z,59.5
2022-08-03T15:16:00.000Z,60.0
2022-08-03T15:18:00.000Z,60.5
2022-08-03T15:20:00.000Z,59.7
2022-08-03T15:22:00.000Z,58.9
2022-08-03T15:24:00.000Z,58.9
2022-08-03T15:26:00.000Z,57.4
2022-08-03T15:28:00.000Z,59.1
2022-08-03T15:30:00.000Z,59.2
2022-08-03T15:32:00.000Z,59.0
2022-08-03T15:34:00.000Z,57.1
2022-08-03T15:36:00.000Z,58.0
2022-08-03T15:38:00.000Z,58.1
2022-08-03T15:40:00.000Z,58.9
2022-08-03T15:42:00.000Z,58.8
2022-08-03T15:44:00.000Z,59.4
2022-08-03T15:46:00.000Z,59.2
2022-08-03T15:48:00.000Z,58.9
2022-08-03T15:50:00.000Z,59.1
2022-08-03T15:52:00.000Z,58.2
2022-08-03T15:54:00.000Z,58.0
2022-08-03T15:56:00.000Z,59.4
2022-08-03T15:58:00.000Z,58.3
2022-08-03T16:00:00.000Z,59.5
2022-08-03T16:02:00.000Z,59.0
2022-08-03T16:04:00.000Z,58.9
2022-08-03T16:06:00.000Z,58.5
2022-08-03T16:08:00.000Z,59.9
2022-08-03T16:10:00.000Z,59.8
2022-08-03T16:12:00.000Z,59.8
2022-08-03T16:14:00.000Z,59.5
2022-08-03T16:16:00.000Z,59.5
2022-08-03T16:18:00.000Z,59.6
2022-08-03T16:20:00.000Z,60.2
2022-08-03T16:22:00.000Z,59.5
2022-08-03T16:24:00.000Z,59.3
2022-08-03T16:26:00.000Z,58.0
2022-08-03T16:28:00.000Z,58.4
2022-08-03T16:30:00.000Z,57.9
2022-08-03T16:32:00.000Z,59.3
2022-08-03T16:34:00.000Z,59.1
2022-08-03T16:36:00.000Z,59.5
2022-08-03T16:38:00.000Z,59.1
2022-08-03T16:40:00.000Z,59.8
2022-08-03T16:42:00.000Z,60.1
2022-08-03T16:44:00.000Z,59.9
2022-08-03T16:46:00.000Z,59.9
2022-08-03T16:48:00.000Z,60.1
2022-08-03T16:50:00.000Z,59.8
2022-08-03T16:52:00.000Z,59.5
2022-08-03T16:54:00.000Z,60.1
2022-08-03T16:56:00.000Z,60.1
2022-08-03T16:58:00.000Z,60.1
2022-08-03T17:00:00.000Z,59.4
2022-08-03T17:02:00.000Z,60.0
2022-08-03T17:04:00.000Z,60.0
2022-08-03T17:06:00.000Z,60.1
2022-08-03T17:08:00.000Z,60.0
2022-08-03T17:10:00.000Z,59.9
2022-08-03T17:12:00.000Z,59.9
2022-08-03T17:14:00.000Z,59.9
2022-08-03T17:16:00.000Z,59.9
2022-08-03T17:18:00.000Z,60.5
2022-08-03T17:20:00.000Z,60.0
2022-08-03T17:22:00.000Z,60.3
2022-08-03T17:24:00.000Z,60.2
2022-08-03T17:26:00.000Z,61.7
2022-08-03T17:28:00.000Z,62.3
2022-08-03T17:30:00.000Z,63.3
2022-08-03T17:32:00.000Z,61.8
2022-08-03T17:34:00.000Z,61.6
2022-08-03T17:36:00.000Z,61.4
2022-08-03T17:38:00.000Z,61.5
2022-08-03T17:40:00.000Z,61.4
2022-08-03T17:42:00.000Z,61.8
2022-08-03T17:44:00.000Z,61.9
2022-08-03T17:46:00.000Z,61.7
2022-08-03T17:48:00.000Z,61.2
2022-08-03T17:50:00.000Z,60.6
2022-08-03T17:52:00.000Z,59.5
2022-08-03T17:54:00.000Z,57.6
2022-08-03T17:56:00.000Z,57.7
2022-08-03T17:58:00.000Z,55.0
2022-08-03T18:00:00.000Z,54.7
2022-08-03T18:02:00.000Z,56.4
2022-08-03T18:04:00.000Z,57.2
2022-08-03T18:06:00.000Z,60.5
2022-08-03T18:08:00.000Z,61.8
2022-08-03T18:10:00.000Z,62.1
2022-08-03T18:12:00.000Z,64.2
2022-08-03T18:14:00.000Z,65.6
2022-08-03T18:16:00.000Z,67.4
2022-08-03T18:18:00.000Z,68.5
2022-08-03T18:20:00.000Z,69.8
2022-08-03T18:22:00.000Z,69.6
2022-08-03T18:24:00.000Z,69.7
2022-08-03T18:26:00.000Z,70.2
2022-08-03T18:28:00.000Z,72.4
2022-08-03T18:30:00.000Z,72.8
2022-08-03T18:32:00.000Z,73.8
2022-08-03T18:34:00.000Z,74.3
2022-08-03T18:36:00.000Z,75.8
2022-08-03T18:38:00.000Z,75.9
2022-08-03T18:40:00.000Z,76.2
2022-08-03T18:42:00.000Z,76.4
2022-08-03T18:44:00.000Z,77.2
2022-08-03T18:46:00.000Z,78.4
2022-08-03T18:48:00.000Z,78.9
2022-08-03T18:50:00.000Z,80.2
2022-08-03T18:52:00.000Z,81.1
2022-08-03T18:54:00.000Z,81.4
2022-08-03T18:56:00.000Z,81.8
2022-08-03T18:58:00.000Z,81.3
2022-08-03T19:00:00.000Z,82.3
2022-08-03T19:02:00.000Z,82.8
2022-08-03T19:04:00.000Z,83.2
2022-08-03T19:06:00.000Z,84.4
2022-08-03T19:08:00.000Z,84.4
2022-08-03T19:10:00.000Z,84.6
2022-08-03T19:12:00.000Z,85.4
2022-08-03T19:14:00.000Z,86.4
2022-08-03T19:16:00.000Z,85.9
2022-08-03T19:18:00.000Z,87.1
2022-08-03T19:20:00.000Z,87.6
2022-08-03T19:22:00.000Z,87.8
2022-08-03T19:24:00.000Z,88.7
2022-08-03T19:26:00.000Z,88.8
2022-08-03T19:28:00.000Z,89.0
2022-08-03T19:30:00.000Z,89.6
2022-08-03T19:32:00.000Z,89.0
2022-08-03T19:34:00.000Z,90.0
2022-08-03T19:36:00.000Z,90.0
2022-08-03T19:38:00.000Z,90.1
2022-08-03T19:40:00.000Z,90.4
2022-08-03T19:42:00.000Z,90.3
2022-08-03T19:44:00.000Z,90.6
2022-08-03T19:46:00.000Z,90.5
2022-08-03T19:48:00.000Z,90.7
2022-08-03T19:50:00.000Z,90.9
2022-08-03T19:52:00.000Z,90.9
2022-08-03T19:54:00.000Z,90.9
2022-08-03T19:56:00.000Z,90.7
2022-08-03T19:58:00.000Z,91.1
2022-08-03T20:00:00.000Z,91.2
2022-08-03T20:02:00.000Z,91.0
2022-08-03T20:04:00.000Z,90.9
2022-08-03T20:06:00.000Z,88.4
2022-08-03T20:08:00.000Z,88.9
2022-08-03T20:10:00.000Z,89.3
2022-08-03T20:12:00.000Z,90.3
2022-08-03T20:14:00.000Z,90.5
2022-08-03T20:16:00.000Z,90.6
2022-08-03T20:18:00.000Z,91.1
2022-08-03T20:20:00.000Z,91.5
2022-08-03T20:22:00.000Z,91.4
2022-08-03T20:24:00.000Z,91.6
2022-08-03T20:26:00.000Z,92.2
2022-08-03T20:28:00.000Z,92.1
2022-08-03T20:30:00.000Z,92.1
2022-08-03T20:32:00.000Z,92.1
2022-08-03T20:34:00.000Z,92.1
2022-08-03T20:36:00.000Z,92.0
2022-08-03T20:38:00.000Z,92.1
2022-08-03T20:40:00.000Z,92.0
2022-08-03T20:42:00.000Z,92.0
2022-08-03T20:44:00.000Z,92.3
2022-08-03T20:46:00.000Z,92.1
2022-08-03T20:48:00.000Z,92.1
2022-08-03T20:50:00.000Z,92.1
2022-08-03T20:52:00.000Z,92.3
2022-08-03T20:54:00.000Z,92.5
2022-08-03T20:56:00.000Z,92.8
2022-08-03T20:58:00.000Z,92.5
2022-08-03T21:00:00.000Z,92.7
2022-08-03T21:02:00.000Z,92.8
2022-08-03T21:04:00.000Z,92.8
2022-08-03T21:06:00.000Z,92.9
2022-08-03T21:08:00.000Z,93.0
2022-08-03T21:10:00.000Z,93.0
2022-08-03T21:12:00.000Z,93.2
2022-08-03T21:14:00.000Z,93.4
2022-08-03T21:16:00.000Z,93.3
2022-08-03T21:18:00.000Z,93.4
2022-08-03T21:20:00.000Z,93.5
2022-08-03T21:22:00.000Z,93.4
2022-08-03T21:24:00.000Z,93.4
2022-08-03T21:26:00.000Z,93.6
2022-08-03T21:28:00.000Z,93.8
2022-08-03T21:30:00.000Z,93.9
2022-08-03T21:32:00.000Z,94.0
2022-08-03T21:34:00.000Z,93.9
2022-08-03T21:36:00.000Z,94.2
2022-08-03T21:38:00.000Z,94.3
2022-08-03T21:40:00.000Z,94.2
2022-08-03T21:42:00.000Z,94.2
2022-08-03T21:44:00.000Z,94.3
2022-08-03T21:46:00.000Z,94.2
2022-08-03T21:48:00.000Z,94.3
2022-08-03T21:50:00.000Z,94.2
2022-08-03T21:52:00.000Z,94.3
2022-08-03T21:54:00.000Z,94.2
2022-08-03T21:56:00.000Z,94.2
2022-08-03T21:58:00.000Z,94.2
2022-08-03T22:00:00.000Z,94.2
2022-08-03T22:02:00.000Z,94.4
2022-08-03T22:04:00.000Z,94.6
2022-08-03T22:06:00.000Z,94.6
2022-08-03T22:08:00.000Z,94.6
2022-08-03T22:10:00.000Z,94.7
2022-08-03T22:12:00.000Z,94.9
2022-08-03T22:14:00.000Z,95.0
2022-08-03T22:16:00.000Z,94.9
2022-08-03T22:18:00.000Z,94.8
2022-08-03T22:20:00.000Z,94.7
2022-08-03T22:22:00.000Z,94.5
2022-08-03T22:24:00.000Z,94.6
2022-08-03T22:26:00.000Z,94.6
2022-08-03T22:28:00.000Z,94.7
2022-08-03T22:30:00.000Z,94.9
2022-08-03T22:32:00.000Z,94.8
2022-08-03T22:34:00.000Z,95.0
2022-08-03T22:36:00.000Z,95.2
2022-08-03T22:38:00.000Z,95.1
2022-08-03T22:40:00.000Z,95.1
2022-08-03T22:42:00.000Z,95.2
2022-08-03T22:44:00.000Z,95.4
2022-08-03T22:46:00.000Z,95.4
2022-08-03T22:48:00.000Z,95.4
2022-08-03T22:50:00.000Z,95.6
2022-08-03T22:52:00.000Z,95.8
2022-08-03T22:54:00.000Z,95.8
2022-08-03T22:56:00.000Z,96.0
2022-08-03T22:58:00.000Z,96.4
2022-08-03T23:00:00.000Z,96.5
2022-08-03T23:02:00.000Z,96.5
2022-08-03T23:04:00.000Z,96.2
2022-08-03T23:06:00.000Z,95.2
2022-08-03T23:08:00.000Z,94.6
2022-08-03T23:10:00.000Z,94.9
2022-08-03T23:12:00.000Z,94.6
2022-08-03T23:14:00.000Z,94.9
2022-08-03T23:16:00.000Z,94.7
2022-08-03T23:18:00.000Z,94.9
2022-08-03T23:20:00.000Z,95.1
2022-08-03T23:22:00.000Z,95.5
2022-08-03T23:24:00.000Z,96.1
2022-08-03T23:26:00.000Z,96.5
2022-08-03T23:28:00.000Z,96.5
2022-08-03T23:30:00.000Z,96.5
2022-08-03T23:32:00.000Z,96.5
2022-08-03T23:34:00.000Z,96.6
2022-08-03T23:36:00.000Z,96.5
2022-08-03T23:38:00.000Z,96.0
2022-08-03T23:40:00.000Z,96.2
2022-08-03T23:42:00.000Z,96.3
2022-08-03T23:44:00.000Z,96.5
2022-08-03T23:46:00.000Z,96.4
2022-08-03T23:48:00.000Z,96.3
2022-08-03T23:50:00.000Z,96.6
2022-08-03T23:52:00.000Z,96.7
2022-08-03T23:54:00.000Z,96.9
2022-08-03T23:56:00.000Z,97.0
2022-08-03T23:58:00.000Z,97.1
